createdAt,value
2023-04-09T00:01:13.651Z,35.93
2023-04-09T00:03:47.920Z,36.30
2023-04-09T00:06:20.884Z,35.10
2023-04-09T00:08:53.824Z,36.40
2023-04-09T00:11:26.908Z,35.83
2023-04-09T00:13:59.619Z,35.33
2023-04-09T00:16:35.204Z,34.80
2023-04-09T00:19:09.615Z,34.57
2023-04-09T00:21:42.287Z,35.47
2023-04-09T00:24:15.039Z,35.70
2023-04-09T00:26:49.197Z,35.27
2023-04-09T00:29:22.482Z,35.53
2023-04-09T00:31:55.221Z,37.67
2023-04-09T00:34:30.496Z,36.33
2023-04-09T00:37:03.303Z,37.13
2023-04-09T00:39:36.188Z,37.43
2023-04-09T00:42:08.886Z,41.43
2023-04-09T00:44:41.707Z,39.00
2023-04-09T00:47:14.894Z,37.03
2023-04-09T00:49:49.309Z,37.97
2023-04-09T00:52:25.512Z,38.37
2023-04-09T00:54:59.262Z,40.83
2023-04-09T00:57:34.647Z,39.53
2023-04-09T01:00:08.509Z,38.60
2023-04-09T01:02:41.766Z,38.50
2023-04-09T01:05:17.265Z,39.33
2023-04-09T01:08:03.151Z,37.73
2023-04-09T01:10:39.912Z,38.03
2023-04-09T01:13:13.867Z,39.20
2023-04-09T01:15:48.232Z,37.43
2023-04-09T01:18:24.633Z,41.50
2023-04-09T01:21:00.585Z,38.93
2023-04-09T01:23:37.972Z,37.63
2023-04-09T01:26:19.272Z,40.30
2023-04-09T01:28:54.948Z,46.57
2023-04-09T01:31:31.865Z,36.40
2023-04-09T01:34:05.035Z,37.97
2023-04-09T01:36:38.903Z,39.10
2023-04-09T01:39:11.735Z,41.90
2023-04-09T01:41:44.543Z,44.50
2023-04-09T01:44:18.889Z,45.23
2023-04-09T01:46:57.767Z,40.10
2023-04-09T01:49:31.209Z,45.10
2023-04-09T01:52:04.174Z,45.47
2023-04-09T01:54:36.834Z,46.30
2023-04-09T01:57:09.821Z,44.30
2023-04-09T01:59:44.179Z,42.63
2023-04-09T02:02:19.171Z,42.10
2023-04-09T02:04:55.123Z,41.50
2023-04-09T02:07:35.304Z,40.07
2023-04-09T02:10:11.970Z,38.37
2023-04-09T02:12:49.438Z,47.20
2023-04-09T02:15:24.191Z,42.97
2023-04-09T02:17:56.902Z,40.03
2023-04-09T02:20:30.165Z,39.03
2023-04-09T02:23:02.876Z,40.97
2023-04-09T02:25:35.658Z,41.37
2023-04-09T02:28:08.324Z,42.43
2023-04-09T02:30:42.650Z,41.97
2023-04-09T02:33:15.380Z,41.90
2023-04-09T02:35:48.358Z,38.77
2023-04-09T02:38:21.136Z,41.67
2023-04-09T02:40:53.863Z,39.43
2023-04-09T02:43:26.585Z,38.50
2023-04-09T02:46:01.586Z,35.33
2023-04-09T02:48:36.604Z,34.33
2023-04-09T02:51:09.367Z,34.93
2023-04-09T02:53:42.255Z,36.90
2023-04-09T02:56:15.054Z,36.53
2023-04-09T02:58:53.290Z,35.87
2023-04-09T03:01:27.692Z,35.20
2023-04-09T03:04:02.497Z,35.53
2023-04-09T03:06:35.581Z,37.67
2023-04-09T03:09:08.377Z,42.07
2023-04-09T03:11:41.316Z,58.37
2023-04-09T03:14:14.131Z,60.00
2023-04-09T03:16:48.479Z,51.73
2023-04-09T03:19:21.232Z,51.43
2023-04-09T03:21:54.649Z,89.63
2023-04-09T03:24:28.704Z,65.33
2023-04-09T03:27:04.019Z,38.87
2023-04-09T03:29:40.336Z,109.87
2023-04-09T03:32:15.034Z,76.33
2023-04-09T03:34:48.733Z,74.53
2023-04-09T03:37:21.551Z,62.03
2023-04-09T03:39:54.404Z,79.73
2023-04-09T03:42:27.267Z,50.87
2023-04-09T03:45:02.173Z,43.70
2023-04-09T03:47:36.715Z,79.27
2023-04-09T03:50:09.789Z,78.20
2023-04-09T03:52:42.387Z,88.40
2023-04-09T03:55:15.411Z,67.53
2023-04-09T03:57:48.158Z,87.73
2023-04-09T04:00:21.010Z,74.93
2023-04-09T04:02:57.747Z,67.27
2023-04-09T04:05:31.499Z,86.83
2023-04-09T04:08:04.500Z,80.27
2023-04-09T04:10:37.261Z,64.20
2023-04-09T04:13:10.337Z,70.33
2023-04-09T04:15:43.590Z,55.33
2023-04-09T04:18:17.894Z,57.87
2023-04-09T04:20:50.713Z,67.73
2023-04-09T04:23:23.467Z,52.17
2023-04-09T04:25:58.048Z,57.47
2023-04-09T04:28:32.794Z,75.33
2023-04-09T04:31:08.448Z,71.10
2023-04-09T04:33:44.005Z,52.07
2023-04-09T04:36:16.866Z,58.57
2023-04-09T04:38:49.756Z,58.97
2023-04-09T04:41:22.547Z,65.23
2023-04-09T04:43:55.561Z,71.43
2023-04-09T04:46:28.275Z,42.53
2023-04-09T04:49:02.406Z,68.30
2023-04-09T04:51:35.133Z,64.00
2023-04-09T04:54:07.954Z,78.07
2023-04-09T04:56:40.733Z,62.67
2023-04-09T04:59:13.618Z,67.57
2023-04-09T05:01:49.293Z,59.83
2023-04-09T05:04:23.520Z,57.87
2023-04-09T05:06:56.242Z,50.00
2023-04-09T05:09:28.970Z,55.93
2023-04-09T05:12:01.722Z,63.03
2023-04-09T05:14:34.540Z,62.83
2023-04-09T05:17:09.598Z,57.30
2023-04-09T05:19:43.753Z,49.00
2023-04-09T05:22:18.387Z,52.73
2023-04-09T05:24:51.431Z,53.03
2023-04-09T05:27:25.952Z,48.83
2023-04-09T05:30:00.668Z,55.03
2023-04-09T05:32:33.654Z,50.13
2023-04-09T05:35:08.192Z,52.47
2023-04-09T05:37:41.528Z,51.17
2023-04-09T05:40:14.850Z,51.67
2023-04-09T05:42:47.583Z,41.83
2023-04-09T05:45:20.380Z,49.00
2023-04-09T05:47:53.256Z,42.87
2023-04-09T05:50:27.441Z,45.87
2023-04-09T05:53:00.192Z,44.93
2023-04-09T05:55:33.023Z,44.97
2023-04-09T05:58:05.933Z,45.17
2023-04-09T06:00:38.923Z,44.13
2023-04-09T06:03:11.826Z,43.83
2023-04-09T06:05:48.180Z,41.00
2023-04-09T06:08:21.039Z,41.80
2023-04-09T06:10:53.813Z,43.27
2023-04-09T06:13:26.661Z,49.07
2023-04-09T06:15:59.594Z,46.03
2023-04-09T06:18:33.808Z,38.97
2023-04-09T06:21:09.494Z,43.27
2023-04-09T06:23:42.261Z,36.93
2023-04-09T06:26:15.252Z,37.97
2023-04-09T06:28:48.031Z,38.77
2023-04-09T06:31:21.156Z,36.30
2023-04-09T06:33:54.293Z,36.73
2023-04-09T06:36:30.520Z,38.47
2023-04-09T06:39:03.361Z,35.63
2023-04-09T06:41:36.323Z,37.03
2023-04-09T06:44:09.000Z,34.57
2023-04-09T06:46:41.842Z,37.57
2023-04-09T06:49:14.606Z,36.63
2023-04-09T06:51:48.786Z,34.47
2023-04-09T06:54:21.676Z,36.20
2023-04-09T06:56:57.438Z,33.93
2023-04-09T06:59:30.198Z,37.27
2023-04-09T07:02:03.083Z,34.87
2023-04-09T07:04:36.931Z,33.83
2023-04-09T07:07:12.795Z,35.93
2023-04-09T07:09:47.762Z,34.73
2023-04-09T07:12:27.257Z,38.97
2023-04-09T07:15:00.233Z,36.10
2023-04-09T07:17:34.389Z,34.93
2023-04-09T07:20:07.633Z,36.60
2023-04-09T07:22:41.745Z,32.67
2023-04-09T07:25:14.658Z,33.77
2023-04-09T07:27:47.494Z,36.53
2023-04-09T07:30:23.573Z,38.40
2023-04-09T07:32:56.528Z,38.80
2023-04-09T07:35:29.341Z,36.80
2023-04-09T07:38:03.736Z,39.67
2023-04-09T07:40:36.753Z,36.77
2023-04-09T07:43:09.519Z,34.63
2023-04-09T07:45:42.608Z,39.17
2023-04-09T07:48:15.922Z,35.07
2023-04-09T07:50:48.998Z,37.60
2023-04-09T07:53:23.211Z,36.17
2023-04-09T07:55:56.500Z,37.33
2023-04-09T07:58:29.528Z,36.90
2023-04-09T08:01:02.576Z,43.23
2023-04-09T08:03:38.446Z,35.07
2023-04-09T08:06:11.521Z,38.43
2023-04-09T08:08:48.140Z,39.47
2023-04-09T08:11:25.183Z,39.37
2023-04-09T08:13:58.528Z,37.97
2023-04-09T08:16:31.378Z,36.17
2023-04-09T08:19:04.249Z,37.27
2023-04-09T08:21:40.139Z,37.10
2023-04-09T08:24:14.312Z,36.80
2023-04-09T08:26:47.089Z,36.40
2023-04-09T08:29:20.118Z,39.60
2023-04-09T08:31:53.168Z,37.43
2023-04-09T08:34:26.164Z,36.97
2023-04-09T08:36:59.147Z,33.97
2023-04-09T08:39:33.341Z,38.07
2023-04-09T08:42:07.788Z,37.33
2023-04-09T08:44:41.152Z,39.50
2023-04-09T08:47:14.258Z,35.80
2023-04-09T08:49:48.550Z,34.93
2023-04-09T08:52:30.932Z,36.50
2023-04-09T08:55:06.099Z,37.90
2023-04-09T08:57:41.743Z,36.10
2023-04-09T09:00:15.450Z,37.60
2023-04-09T09:03:03.643Z,36.10
2023-04-09T09:05:37.227Z,35.00
2023-04-09T09:08:12.738Z,35.40
2023-04-09T09:10:47.095Z,35.23
2023-04-09T09:13:21.323Z,36.13
2023-04-09T09:15:56.483Z,33.23
2023-04-09T09:18:38.749Z,37.60
2023-04-09T09:21:15.703Z,33.37
2023-04-09T09:23:54.965Z,33.13
2023-04-09T09:26:32.024Z,29.60
2023-04-09T09:29:05.881Z,31.10
2023-04-09T09:31:50.253Z,32.97
2023-04-09T09:34:24.629Z,35.90
2023-04-09T09:36:57.510Z,30.87
2023-04-09T09:39:43.570Z,35.47
2023-04-09T09:42:17.870Z,29.77
2023-04-09T09:44:51.468Z,29.97
2023-04-09T09:47:25.387Z,29.43
2023-04-09T09:49:58.237Z,31.83
2023-04-09T09:52:36.234Z,33.70
2023-04-09T09:55:09.411Z,32.57
2023-04-09T09:57:45.466Z,32.90
2023-04-09T10:00:19.461Z,30.30
2023-04-09T10:02:57.115Z,32.40
2023-04-09T10:05:30.603Z,33.50
2023-04-09T10:08:04.561Z,27.17
2023-04-09T10:10:38.643Z,29.63
2023-04-09T10:13:15.538Z,30.57
2023-04-09T10:15:48.595Z,30.57
2023-04-09T10:18:21.326Z,28.73
2023-04-09T10:20:57.995Z,30.90
2023-04-09T10:23:33.742Z,28.20
2023-04-09T10:26:06.653Z,30.70
2023-04-09T10:28:41.354Z,21.27
2023-04-09T10:31:15.069Z,27.70
2023-04-09T10:33:47.969Z,31.03
2023-04-09T10:36:27.469Z,29.87
2023-04-09T10:39:00.573Z,27.40
2023-04-09T10:41:35.205Z,28.87
2023-04-09T10:44:20.605Z,25.97
2023-04-09T10:46:54.598Z,26.10
2023-04-09T10:49:28.122Z,30.07
2023-04-09T10:52:02.895Z,27.67
2023-04-09T10:54:47.019Z,27.80
2023-04-09T10:57:26.263Z,28.43
2023-04-09T11:00:00.604Z,26.67
2023-04-09T11:02:55.014Z,26.20
2023-04-09T11:05:31.546Z,27.93
2023-04-09T11:08:05.768Z,26.17
2023-04-09T11:10:38.985Z,26.13
2023-04-09T11:13:12.596Z,27.43
2023-04-09T11:15:46.994Z,26.80
2023-04-09T11:18:23.369Z,25.80
2023-04-09T11:20:56.533Z,26.57
2023-04-09T11:23:29.703Z,26.63
2023-04-09T11:26:02.974Z,26.80
2023-04-09T11:28:35.890Z,26.10
2023-04-09T11:31:10.356Z,28.60
2023-04-09T11:33:47.969Z,24.93
2023-04-09T11:36:28.431Z,24.67
2023-04-09T11:39:04.095Z,27.60
2023-04-09T11:41:37.637Z,24.77
2023-04-09T11:44:10.445Z,25.50
2023-04-09T11:46:44.937Z,23.70
2023-04-09T11:49:18.513Z,27.77
2023-04-09T11:51:51.502Z,26.60
2023-04-09T11:54:24.371Z,25.17
2023-04-09T11:56:59.971Z,25.97
2023-04-09T11:59:32.845Z,26.20
2023-04-09T12:02:08.589Z,27.67
2023-04-09T12:04:50.004Z,22.77
2023-04-09T12:07:22.955Z,26.67
2023-04-09T12:09:57.825Z,27.03
2023-04-09T12:12:30.584Z,25.33
2023-04-09T12:15:11.176Z,23.20
2023-04-09T12:17:47.737Z,25.80
2023-04-09T12:20:31.214Z,24.07
2023-04-09T12:23:04.860Z,25.93
2023-04-09T12:25:38.837Z,25.43
2023-04-09T12:28:13.698Z,23.70
2023-04-09T12:30:46.869Z,25.33
2023-04-09T12:33:21.127Z,25.50
2023-04-09T12:35:56.040Z,24.97
2023-04-09T12:38:29.033Z,22.13
2023-04-09T12:41:02.161Z,23.27
2023-04-09T12:43:34.856Z,26.67
2023-04-09T12:46:08.209Z,25.63
2023-04-09T12:48:42.606Z,25.67
2023-04-09T12:51:15.512Z,24.40
2023-04-09T12:53:48.478Z,26.23
2023-04-09T12:56:21.208Z,27.13
2023-04-09T12:58:54.432Z,26.73
2023-04-09T13:01:27.447Z,26.20
2023-04-09T13:04:01.853Z,25.03
2023-04-09T13:06:34.687Z,27.00
2023-04-09T13:09:07.939Z,26.30
2023-04-09T13:11:40.768Z,26.67
2023-04-09T13:14:13.669Z,20.20
2023-04-09T13:16:46.615Z,24.30
2023-04-09T13:19:20.991Z,23.30
2023-04-09T13:21:53.811Z,23.77
2023-04-09T13:24:27.219Z,26.17
2023-04-09T13:27:00.040Z,23.70
2023-04-09T13:29:35.161Z,24.60
2023-04-09T13:32:08.175Z,25.70
2023-04-09T13:34:42.435Z,23.37
2023-04-09T13:37:17.858Z,25.10
2023-04-09T13:39:50.811Z,24.60
2023-04-09T13:42:23.592Z,24.13
2023-04-09T13:44:58.408Z,24.90
2023-04-09T13:47:31.245Z,22.30
2023-04-09T13:50:06.087Z,23.73
2023-04-09T13:52:38.841Z,24.00
2023-04-09T13:55:11.722Z,22.53
2023-04-09T13:57:45.421Z,22.67
2023-04-09T14:00:19.765Z,23.07
2023-04-09T14:02:52.654Z,23.17
2023-04-09T14:05:27.317Z,28.07
2023-04-09T14:08:00.065Z,33.17
2023-04-09T14:10:33.743Z,24.73
2023-04-09T14:13:07.378Z,27.87
2023-04-09T14:15:41.781Z,25.40
2023-04-09T14:18:14.763Z,21.87
2023-04-09T14:20:49.099Z,24.47
2023-04-09T14:23:21.888Z,20.77
2023-04-09T14:25:54.789Z,21.97
2023-04-09T14:28:28.493Z,22.97
2023-04-09T14:31:01.538Z,22.03
2023-04-09T14:33:34.667Z,21.90
2023-04-09T14:36:09.405Z,25.07
2023-04-09T14:38:42.180Z,22.70
2023-04-09T14:41:15.377Z,27.17
2023-04-09T14:43:48.273Z,26.47
2023-04-09T14:46:22.217Z,25.03
2023-04-09T14:48:55.153Z,22.53
2023-04-09T14:51:30.524Z,23.50
2023-04-09T14:54:06.505Z,22.60
2023-04-09T14:56:39.371Z,24.30
2023-04-09T14:59:12.151Z,23.17
2023-04-09T15:01:45.326Z,22.63
2023-04-09T15:04:18.442Z,24.90
2023-04-09T15:06:52.838Z,24.80
2023-04-09T15:09:25.768Z,21.77
2023-04-09T15:11:58.851Z,24.70
2023-04-09T15:14:31.870Z,25.53
2023-04-09T15:17:04.677Z,22.63
2023-04-09T15:19:37.464Z,20.63
2023-04-09T15:22:11.940Z,21.73
2023-04-09T15:24:44.993Z,23.47
2023-04-09T15:27:18.269Z,22.53
2023-04-09T15:29:51.695Z,21.97
2023-04-09T15:32:24.608Z,22.70
2023-04-09T15:34:57.746Z,20.47
2023-04-09T15:37:31.943Z,19.03
2023-04-09T15:40:05.138Z,19.10
2023-04-09T15:42:39.693Z,18.67
2023-04-09T15:45:12.920Z,19.27
2023-04-09T15:47:46.049Z,18.50
2023-04-09T15:50:19.027Z,19.70
2023-04-09T15:52:53.616Z,25.93
2023-04-09T15:55:27.137Z,19.80
2023-04-09T15:58:00.659Z,22.47
2023-04-09T16:00:33.467Z,21.83
2023-04-09T16:03:09.029Z,20.40
2023-04-09T16:05:43.568Z,20.33
2023-04-09T16:08:17.971Z,15.67
2023-04-09T16:10:50.957Z,17.43
2023-04-09T16:13:24.453Z,16.17
2023-04-09T16:15:57.653Z,17.03
2023-04-09T16:18:30.704Z,16.80
2023-04-09T16:21:05.790Z,18.43
2023-04-09T16:23:40.084Z,20.30
2023-04-09T16:26:12.938Z,16.80
2023-04-09T16:28:46.462Z,18.57
2023-04-09T16:31:19.476Z,15.03
2023-04-09T16:33:52.572Z,16.67
2023-04-09T16:36:30.533Z,18.07
2023-04-09T16:39:05.022Z,19.73
2023-04-09T16:41:37.931Z,17.47
2023-04-09T16:44:10.927Z,16.57
2023-04-09T16:46:44.104Z,17.40
2023-04-09T16:49:17.222Z,18.43
2023-04-09T16:51:51.776Z,18.23
2023-04-09T16:54:26.167Z,19.03
2023-04-09T16:56:59.201Z,18.63
2023-04-09T16:59:32.785Z,19.53
2023-04-09T17:02:05.710Z,20.90
2023-04-09T17:04:38.713Z,19.57
2023-04-09T17:07:14.213Z,19.40
2023-04-09T17:09:48.471Z,23.87
2023-04-09T17:12:21.612Z,18.17
2023-04-09T17:14:58.715Z,20.07
2023-04-09T17:17:33.315Z,18.63
2023-04-09T17:20:06.732Z,19.00
2023-04-09T17:22:39.936Z,18.00
2023-04-09T17:25:14.941Z,18.77
2023-04-09T17:27:47.804Z,21.87
2023-04-09T17:30:21.236Z,19.50
2023-04-09T17:32:54.141Z,20.57
2023-04-09T17:35:27.360Z,21.93
2023-04-09T17:38:00.304Z,20.33
2023-04-09T17:40:37.563Z,20.30
2023-04-09T17:43:10.334Z,20.43
2023-04-09T17:45:43.372Z,19.90
2023-04-09T17:48:16.685Z,22.37
2023-04-09T17:50:50.135Z,21.60
2023-04-09T17:53:23.227Z,22.20
2023-04-09T17:55:57.466Z,21.53
2023-04-09T17:58:30.473Z,22.43
2023-04-09T18:01:03.177Z,19.87
2023-04-09T18:03:36.540Z,20.90
2023-04-09T18:06:09.712Z,19.30
2023-04-09T18:08:43.394Z,22.77
2023-04-09T18:11:18.397Z,21.73
2023-04-09T18:13:51.630Z,21.60
2023-04-09T18:16:24.656Z,24.23
2023-04-09T18:18:57.762Z,21.77
2023-04-09T18:21:31.200Z,24.53
2023-04-09T18:24:04.438Z,23.10
2023-04-09T18:26:38.889Z,21.90
2023-04-09T18:29:11.876Z,22.43
2023-04-09T18:31:44.772Z,23.47
2023-04-09T18:34:17.651Z,24.70
2023-04-09T18:36:53.296Z,22.47
2023-04-09T18:39:27.586Z,25.67
2023-04-09T18:42:02.622Z,24.53
2023-04-09T18:44:37.396Z,23.90
2023-04-09T18:47:11.947Z,27.23
2023-04-09T18:49:45.062Z,25.40
2023-04-09T18:52:17.999Z,27.87
2023-04-09T18:54:51.107Z,26.63
2023-04-09T18:57:25.525Z,27.77
2023-04-09T19:00:00.406Z,32.10
2023-04-09T19:02:33.287Z,33.47
2023-04-09T19:05:07.616Z,34.27
2023-04-09T19:07:40.654Z,33.77
2023-04-09T19:10:13.900Z,33.70
2023-04-09T19:12:53.676Z,33.97
2023-04-09T19:15:28.455Z,33.63
2023-04-09T19:18:01.469Z,34.67
2023-04-09T19:20:34.421Z,35.73
2023-04-09T19:23:07.444Z,42.77
2023-04-09T19:25:40.358Z,46.20
2023-04-09T19:28:15.305Z,50.27
2023-04-09T19:30:50.346Z,47.30
2023-04-09T19:33:25.368Z,50.27
2023-04-09T19:35:59.082Z,51.53
2023-04-09T19:38:32.103Z,51.80
2023-04-09T19:41:05.110Z,44.37
2023-04-09T19:43:39.542Z,48.87
2023-04-09T19:46:13.140Z,45.07
2023-04-09T19:48:46.358Z,45.07
2023-04-09T19:51:20.021Z,48.27
2023-04-09T19:53:55.736Z,44.80
2023-04-09T19:56:28.533Z,43.47
2023-04-09T19:59:02.978Z,44.47
2023-04-09T20:01:36.094Z,46.50
2023-04-09T20:04:09.363Z,45.27
2023-04-09T20:06:43.678Z,46.63
2023-04-09T20:09:26.709Z,42.97
2023-04-09T20:12:04.303Z,41.63
2023-04-09T20:14:39.514Z,42.17
2023-04-09T20:17:12.344Z,42.10
2023-04-09T20:19:45.120Z,44.33
2023-04-09T20:22:18.087Z,45.27
2023-04-09T20:24:54.730Z,42.87
2023-04-09T20:27:28.274Z,40.53
2023-04-09T20:30:03.362Z,39.77
2023-04-09T20:32:37.083Z,39.60
2023-04-09T20:35:11.136Z,39.87
2023-04-09T20:37:44.117Z,40.60
2023-04-09T20:40:17.263Z,34.87
2023-04-09T20:42:53.172Z,42.63
2023-04-09T20:45:27.301Z,39.33
2023-04-09T20:48:00.128Z,44.40
2023-04-09T20:50:32.833Z,42.73
2023-04-09T20:53:05.633Z,42.60
2023-04-09T20:55:38.718Z,39.37
2023-04-09T20:58:11.577Z,44.97
2023-04-09T21:00:45.896Z,44.10
2023-04-09T21:03:18.812Z,42.17
2023-04-09T21:05:54.833Z,38.83
2023-04-09T21:08:30.823Z,41.53
2023-04-09T21:11:03.727Z,41.93
2023-04-09T21:13:50.974Z,43.43
2023-04-09T21:16:29.888Z,41.30
2023-04-09T21:19:07.129Z,46.43
2023-04-09T21:21:40.164Z,40.30
2023-04-09T21:24:12.835Z,43.43
2023-04-09T21:26:51.658Z,41.83
2023-04-09T21:29:25.392Z,43.37
2023-04-09T21:32:00.485Z,41.90
2023-04-09T21:34:33.355Z,41.43
2023-04-09T21:37:06.227Z,40.77
2023-04-09T21:39:41.083Z,42.67
2023-04-09T21:42:13.854Z,41.90
2023-04-09T21:44:47.172Z,45.63
2023-04-09T21:47:22.859Z,43.53
2023-04-09T21:49:55.899Z,42.37
2023-04-09T21:52:28.837Z,40.47
2023-04-09T21:55:01.702Z,41.67
2023-04-09T21:57:36.393Z,39.00
2023-04-09T22:00:11.160Z,44.67
2023-04-09T22:02:47.644Z,42.53
2023-04-09T22:05:20.438Z,42.87
2023-04-09T22:07:53.413Z,40.50
2023-04-09T22:10:27.511Z,42.23
2023-04-09T22:13:00.254Z,44.83
2023-04-09T22:15:33.369Z,42.53
2023-04-09T22:18:07.639Z,41.70
2023-04-09T22:20:40.612Z,37.30
2023-04-09T22:23:13.379Z,46.37
2023-04-09T22:25:46.424Z,44.30
2023-04-09T22:28:19.277Z,48.43
2023-04-09T22:30:53.195Z,48.63
2023-04-09T22:33:27.620Z,48.70
2023-04-09T22:36:00.466Z,48.63
2023-04-09T22:38:33.410Z,49.90
2023-04-09T22:41:06.476Z,55.37
2023-04-09T22:43:39.326Z,55.07
2023-04-09T22:46:14.406Z,59.27
2023-04-09T22:48:48.571Z,56.33
2023-04-09T22:51:24.657Z,57.20
2023-04-09T22:53:57.410Z,59.73
2023-04-09T22:56:31.482Z,58.80
2023-04-09T22:59:04.405Z,53.97
2023-04-09T23:01:37.300Z,58.23
2023-04-09T23:04:11.885Z,58.17
2023-04-09T23:06:45.935Z,57.77
2023-04-09T23:09:18.766Z,60.63
2023-04-09T23:11:51.651Z,60.40
2023-04-09T23:14:24.453Z,60.23
2023-04-09T23:16:57.855Z,63.03
2023-04-09T23:19:31.869Z,61.33
2023-04-09T23:22:08.124Z,62.23
2023-04-09T23:24:40.960Z,66.43
2023-04-09T23:27:15.025Z,69.70
2023-04-09T23:29:47.778Z,69.77
2023-04-09T23:32:20.724Z,68.23
2023-04-09T23:34:56.925Z,62.10
2023-04-09T23:37:31.280Z,72.77
2023-04-09T23:40:04.284Z,68.83
2023-04-09T23:42:37.013Z,63.67
2023-04-09T23:45:10.214Z,68.00
2023-04-09T23:47:42.849Z,61.47
2023-04-09T23:50:17.713Z,57.43
2023-04-09T23:52:50.660Z,60.03
2023-04-09T23:55:23.950Z,58.27
2023-04-09T23:57:56.791Z,62.03
